Time;durP1;ratioP1;P1;durP2;ratioP2;P2;SDS_P1;SDS_P2;PMS_P1;PMS_P2;Temp;Humidity;BMP_temperature;BMP_pressure;BME280_temperature;BME280_humidity;BME280_pressure;Samples;Min_cycle;Max_cycle;Signal;HPM_P1;HPM_P2
2023/06/24 00:02:05;;;;;;;;;;;;;;;34.08;30.77;98278.94;5051433;28;20300;-91
2023/06/24 00:04:31;;;;;;;;;;;;;;;34.29;30.07;98271.97;5049596;28;19924;-91
2023/06/24 00:06:59;;;;;;;;;;;;;;;34.36;29.67;98268.66;5052238;28;19921;-90
2023/06/24 00:09:27;;;;;;;;;;;;;;;34.26;30.25;98270.09;5046146;28;19921;-91
2023/06/24 00:11:54;;;;;;;;;;;;;;;34.39;30.01;98264.03;5050684;28;19967;-91
2023/06/24 00:14:21;;;;;;;;;;;;;;;34.34;30.10;98270.47;5051145;28;20414;-91
2023/06/24 00:16:51;;;;;;;;;;;;;;;34.44;29.92;98271.88;5042741;28;19927;-92
2023/06/24 00:19:20;;;;;;;;;;;;;;;34.19;30.31;98270.56;5051697;28;19924;-91
2023/06/24 00:21:53;;;;;;;;;;;;;;;33.63;31.42;98266.09;5047072;28;19946;-91
2023/06/24 00:24:19;;;;;;;;;;;;;;;33.47;31.23;98271.53;5045346;28;19991;-91
2023/06/24 00:26:46;;;;;;;;;;;;;;;33.71;31.21;98275.03;5051322;28;19921;-90
2023/06/24 00:29:12;;;;;;;;;;;;;;;33.36;31.84;98269.28;5051855;28;19932;-92
2023/06/24 00:31:38;;;;;;;;;;;;;;;33.57;31.36;98270.16;5049074;28;19937;-90
2023/06/24 00:34:04;;;;;;;;;;;;;;;33.56;31.21;98275.06;5045777;28;19927;-90
2023/06/24 00:36:31;;;;;;;;;;;;;;;33.59;31.00;98276.94;5051196;28;19920;-89
2023/06/24 00:39:01;;;;;;;;;;;;;;;33.41;31.18;98274.28;5049595;28;19921;-90
2023/06/24 00:41:27;;;;;;;;;;;;;;;33.29;31.42;98269.69;5045690;28;19927;-90
2023/06/24 00:43:53;;;;;;;;;;;;;;;33.32;31.24;98263.03;5050320;28;19928;-91
2023/06/24 00:46:19;;;;;;;;;;;;;;;33.69;30.55;98275.53;5053003;28;19924;-90
2023/06/24 00:48:45;;;;;;;;;;;;;;;33.52;30.83;98277.31;5052771;28;20327;-90
2023/06/24 00:51:12;;;;;;;;;;;;;;;33.85;30.48;98277.84;5055928;28;19956;-90
2023/06/24 00:53:38;;;;;;;;;;;;;;;34.15;29.77;98275.66;5053895;28;20366;-90
2023/06/24 00:56:04;;;;;;;;;;;;;;;34.04;29.68;98282.03;5051859;28;19959;-91
2023/06/24 00:58:31;;;;;;;;;;;;;;;34.32;29.40;98273.03;5052804;28;19939;-91
2023/06/24 01:00:57;;;;;;;;;;;;;;;34.18;29.82;98263.28;5051714;28;20012;-90
2023/06/24 01:03:25;;;;;;;;;;;;;;;34.02;30.17;98266.66;5053598;28;19952;-90
2023/06/24 01:05:52;;;;;;;;;;;;;;;33.86;30.29;98270.06;5050615;28;19975;-90
2023/06/24 01:08:19;;;;;;;;;;;;;;;33.49;30.75;98257.59;5051158;28;19928;-90
2023/06/24 01:10:45;;;;;;;;;;;;;;;33.47;30.60;98268.69;5048239;28;19927;-89
2023/06/24 01:13:11;;;;;;;;;;;;;;;33.40;30.76;98272.72;5052296;28;19943;-90
2023/06/24 01:15:37;;;;;;;;;;;;;;;33.62;30.47;98280.84;5046783;28;19933;-91
2023/06/24 01:18:08;;;;;;;;;;;;;;;33.73;30.41;98276.09;5045394;28;19928;-89
2023/06/24 01:20:39;;;;;;;;;;;;;;;33.69;30.00;98271.91;5052802;28;19928;-90
2023/06/24 01:23:26;;;;;;;;;;;;;;;33.74;30.03;98272.00;5049092;28;19929;-89
2023/06/24 01:25:59;;;;;;;;;;;;;;;33.85;30.30;98282.75;5025695;28;19925;-90
2023/06/24 01:28:37;;;;;;;;;;;;;;;33.83;30.17;98276.75;5045319;28;19928;-90
2023/06/24 01:31:04;;;;;;;;;;;;;;;33.96;30.31;98285.75;5046933;28;19925;-91
2023/06/24 01:33:36;;;;;;;;;;;;;;;33.98;30.23;98286.81;5053358;28;19920;-91
2023/06/24 01:36:06;;;;;;;;;;;;;;;33.99;30.27;98290.44;5050758;28;19960;-90
2023/06/24 01:38:36;;;;;;;;;;;;;;;33.87;30.05;98285.88;5048795;28;19928;-90
2023/06/24 01:41:03;;;;;;;;;;;;;;;33.84;30.59;98295.44;5042318;28;20019;-90
2023/06/24 01:43:30;;;;;;;;;;;;;;;33.91;30.34;98298.63;5048415;28;20020;-89
2023/06/24 01:45:56;;;;;;;;;;;;;;;34.03;30.12;98302.44;5051844;28;20023;-90
2023/06/24 01:48:25;;;;;;;;;;;;;;;34.19;29.93;98301.91;5051248;28;19920;-91
2023/06/24 01:50:58;;;;;;;;;;;;;;;33.99;30.09;98291.25;5053595;28;19952;-89
2023/06/24 01:53:26;;;;;;;;;;;;;;;34.06;29.89;98301.47;5045101;28;19921;-90
2023/06/24 01:55:54;;;;;;;;;;;;;;;34.00;29.88;98295.63;5053431;28;19941;-90
2023/06/24 01:58:21;;;;;;;;;;;;;;;34.03;29.78;98296.75;5048472;28;19927;-90
2023/06/24 02:00:48;;;;;;;;;;;;;;;33.97;29.86;98296.66;5048161;28;19924;-89
2023/06/24 02:03:15;;;;;;;;;;;;;;;33.47;30.73;98291.47;5051282;28;20438;-90
2023/06/24 02:05:42;;;;;;;;;;;;;;;33.49;30.37;98292.56;5053966;28;20288;-90
2023/06/24 02:08:09;;;;;;;;;;;;;;;33.60;30.35;98289.91;5053893;28;19916;-90
2023/06/24 02:10:39;;;;;;;;;;;;;;;33.76;29.81;98300.75;5050369;28;19955;-89
2023/06/24 02:13:07;;;;;;;;;;;;;;;34.00;29.33;98298.50;5051679;28;20040;-91
2023/06/24 02:15:34;;;;;;;;;;;;;;;33.96;29.54;98294.28;5045549;28;19932;-90
2023/06/24 02:18:02;;;;;;;;;;;;;;;34.14;29.21;98296.13;5048820;28;19920;-90
2023/06/24 02:20:30;;;;;;;;;;;;;;;33.79;29.92;98298.97;5053028;28;19924;-90
2023/06/24 02:22:57;;;;;;;;;;;;;;;34.00;29.30;98301.34;5052941;28;19928;-90
2023/06/24 02:25:24;;;;;;;;;;;;;;;34.10;29.25;98302.03;5052903;28;19924;-90
2023/06/24 02:27:51;;;;;;;;;;;;;;;34.33;28.94;98294.56;5052264;28;19954;-90
2023/06/24 02:30:17;;;;;;;;;;;;;;;34.32;29.07;98290.13;5052798;28;20403;-90
2023/06/24 02:32:43;;;;;;;;;;;;;;;34.44;28.90;98297.53;5044417;28;19921;-90
2023/06/24 02:35:09;;;;;;;;;;;;;;;34.78;28.43;98298.72;4990258;28;1814374;-90
2023/06/24 02:37:35;;;;;;;;;;;;;;;34.80;28.56;98296.94;5052061;28;19929;-90
2023/06/24 02:40:02;;;;;;;;;;;;;;;34.88;28.49;98291.56;5051747;28;19924;-90
2023/06/24 02:42:29;;;;;;;;;;;;;;;35.00;28.41;98296.09;5048421;28;19928;-90
2023/06/24 02:44:55;;;;;;;;;;;;;;;35.08;28.16;98288.69;5046770;28;19925;-90
2023/06/24 02:47:21;;;;;;;;;;;;;;;35.14;28.18;98295.22;5052259;28;19925;-90
2023/06/24 02:49:48;;;;;;;;;;;;;;;34.99;27.93;98303.88;5045193;28;19920;-90
2023/06/24 02:52:15;;;;;;;;;;;;;;;34.86;28.35;98300.66;5050302;28;19970;-91
2023/06/24 02:54:41;;;;;;;;;;;;;;;34.82;28.41;98296.44;5050856;28;19928;-90
2023/06/24 02:57:08;;;;;;;;;;;;;;;34.54;28.86;98302.63;5043102;28;20384;-91
2023/06/24 02:59:34;;;;;;;;;;;;;;;34.57;28.79;98303.69;5051321;28;19921;-91
2023/06/24 03:02:00;;;;;;;;;;;;;;;34.49;28.80;98299.69;5041657;28;20000;-90
2023/06/24 03:04:28;;;;;;;;;;;;;;;34.39;29.24;98299.03;5043733;28;19916;-91
2023/06/24 03:06:54;;;;;;;;;;;;;;;34.38;29.51;98299.56;5045829;28;19925;-90
2023/06/24 03:09:20;;;;;;;;;;;;;;;34.37;29.31;98298.75;5048877;28;20003;-90
2023/06/24 03:11:46;;;;;;;;;;;;;;;34.39;29.23;98295.41;5043452;28;19920;-90
2023/06/24 03:14:12;;;;;;;;;;;;;;;34.40;29.09;98299.84;5045459;28;19927;-90
2023/06/24 03:16:38;;;;;;;;;;;;;;;34.30;29.42;98299.19;5046273;28;19925;-90
2023/06/24 03:19:04;;;;;;;;;;;;;;;34.28;29.55;98306.69;5053464;28;20387;-90
2023/06/24 03:21:31;;;;;;;;;;;;;;;34.32;29.66;98307.25;5052490;28;19924;-90
2023/06/24 03:23:58;;;;;;;;;;;;;;;34.36;29.10;98307.81;5051721;28;19955;-91
2023/06/24 03:26:25;;;;;;;;;;;;;;;34.34;29.19;98305.47;5053634;28;19929;-90
2023/06/24 03:28:51;;;;;;;;;;;;;;;34.44;29.22;98314.66;5052077;28;19967;-90
2023/06/24 03:31:17;;;;;;;;;;;;;;;34.50;29.54;98315.50;5048913;28;19974;-89
2023/06/24 03:33:44;;;;;;;;;;;;;;;34.60;28.88;98311.25;5053079;28;19921;-90
2023/06/24 03:36:10;;;;;;;;;;;;;;;34.58;29.03;98311.75;5053230;28;19921;-89
2023/06/24 03:38:36;;;;;;;;;;;;;;;34.67;29.05;98317.31;5050884;28;20397;-90
2023/06/24 03:41:02;;;;;;;;;;;;;;;34.65;29.19;98317.03;5049348;28;19944;-91
2023/06/24 03:43:28;;;;;;;;;;;;;;;34.59;29.30;98312.50;5049270;28;20012;-90
2023/06/24 03:45:55;;;;;;;;;;;;;;;34.58;29.52;98314.59;5051930;28;19925;-91
2023/06/24 03:48:21;;;;;;;;;;;;;;;34.53;29.60;98317.38;5051793;28;19931;-90
2023/06/24 03:50:47;;;;;;;;;;;;;;;34.55;29.77;98318.44;5048763;28;19956;-91
2023/06/24 03:53:13;;;;;;;;;;;;;;;34.70;29.66;98319.13;5050981;28;19972;-90
2023/06/24 03:55:39;;;;;;;;;;;;;;;34.77;29.59;98315.06;5050016;28;20406;-90
2023/06/24 03:58:05;;;;;;;;;;;;;;;34.77;29.55;98317.13;5049276;28;19999;-89
2023/06/24 04:00:31;;;;;;;;;;;;;;;34.58;29.68;98313.81;5043306;28;19924;-89
2023/06/24 04:03:00;;;;;;;;;;;;;;;34.13;30.06;98314.50;5050089;28;20303;-90
2023/06/24 04:05:26;;;;;;;;;;;;;;;33.79;30.81;98314.00;5052136;28;19987;-90
2023/06/24 04:07:53;;;;;;;;;;;;;;;33.60;30.93;98311.88;5043696;28;19928;-90
2023/06/24 04:10:19;;;;;;;;;;;;;;;33.56;30.96;98309.22;5050041;28;19927;-89
2023/06/24 04:12:45;;;;;;;;;;;;;;;33.56;31.14;98319.84;5047260;28;20364;-89
2023/06/24 04:15:11;;;;;;;;;;;;;;;33.14;31.83;98328.69;5040836;28;19925;-89
2023/06/24 04:17:37;;;;;;;;;;;;;;;33.12;31.93;98323.47;5044950;28;19924;-88
2023/06/24 04:20:06;;;;;;;;;;;;;;;32.91;32.30;98324.63;5049127;28;20338;-88
2023/06/24 04:22:32;;;;;;;;;;;;;;;33.01;32.17;98325.31;5046637;28;19922;-87
2023/06/24 04:24:58;;;;;;;;;;;;;;;33.14;32.18;98329.47;5052905;28;20322;-88
2023/06/24 04:27:24;;;;;;;;;;;;;;;33.43;31.48;98328.66;5051450;28;19929;-88
2023/06/24 04:29:50;;;;;;;;;;;;;;;33.45;31.20;98337.50;5044949;28;19927;-88
2023/06/24 04:32:17;;;;;;;;;;;;;;;33.35;31.53;98339.66;5050925;28;19937;-88
2023/06/24 04:34:43;;;;;;;;;;;;;;;33.40;31.25;98343.88;5046772;28;19948;-88
2023/06/24 04:37:09;;;;;;;;;;;;;;;33.29;31.69;98349.41;5048006;28;19935;-88
2023/06/24 04:39:35;;;;;;;;;;;;;;;32.86;32.10;98350.13;5045549;28;19917;-88
2023/06/24 04:42:01;;;;;;;;;;;;;;;33.05;31.63;98349.47;5048066;28;19927;-88
2023/06/24 04:44:27;;;;;;;;;;;;;;;33.02;32.51;98352.53;5044841;28;19982;-88
2023/06/24 04:46:53;;;;;;;;;;;;;;;33.35;31.36;98355.97;5046634;28;19960;-87
2023/06/24 04:49:19;;;;;;;;;;;;;;;33.32;31.52;98363.44;5049805;28;19974;-86
2023/06/24 04:51:45;;;;;;;;;;;;;;;33.36;31.70;98360.38;5052248;28;19920;-87
2023/06/24 04:54:12;;;;;;;;;;;;;;;33.32;31.35;98357.75;5040158;28;19928;-87
2023/06/24 04:56:38;;;;;;;;;;;;;;;33.41;31.49;98368.25;5049568;28;19967;-87
2023/06/24 04:59:04;;;;;;;;;;;;;;;33.27;31.78;98364.13;5049442;28;20028;-87
2023/06/24 05:01:30;;;;;;;;;;;;;;;33.18;32.18;98372.75;5051695;28;19920;-88
2023/06/24 05:03:56;;;;;;;;;;;;;;;33.42;31.58;98359.19;5046768;28;19921;-87
2023/06/24 05:06:23;;;;;;;;;;;;;;;33.35;31.38;98359.59;5044781;28;20392;-87
2023/06/24 05:08:49;;;;;;;;;;;;;;;33.27;31.68;98358.44;5045819;28;20381;-86
2023/06/24 05:11:15;;;;;;;;;;;;;;;33.22;32.00;98358.31;5042346;28;19920;-87
2023/06/24 05:13:41;;;;;;;;;;;;;;;33.14;32.27;98363.63;5046120;28;19916;-87
2023/06/24 05:16:07;;;;;;;;;;;;;;;32.73;32.55;98364.59;5045796;28;20300;-87
2023/06/24 05:18:33;;;;;;;;;;;;;;;32.91;32.89;98369.38;5047250;28;19935;-86
2023/06/24 05:20:59;;;;;;;;;;;;;;;32.75;32.62;98368.53;5047966;28;19929;-86
2023/06/24 05:23:24;;;;;;;;;;;;;;;32.67;33.53;98372.25;5046751;28;19921;-86
2023/06/24 05:25:51;;;;;;;;;;;;;;;32.57;33.03;98371.53;5042613;28;20281;-87
2023/06/24 05:28:17;;;;;;;;;;;;;;;32.86;32.55;98370.81;5047335;28;19921;-87
2023/06/24 05:30:44;;;;;;;;;;;;;;;32.97;32.52;98382.41;5051538;28;19929;-87
2023/06/24 05:33:10;;;;;;;;;;;;;;;32.77;32.85;98376.56;5054686;28;19920;-87
2023/06/24 05:35:39;;;;;;;;;;;;;;;32.93;32.28;98376.13;5051777;28;19920;-87
2023/06/24 05:38:05;;;;;;;;;;;;;;;33.03;32.52;98380.47;5046457;28;19927;-87
2023/06/24 05:40:32;;;;;;;;;;;;;;;33.33;32.16;98381.28;5039185;28;19925;-87
2023/06/24 05:42:58;;;;;;;;;;;;;;;33.36;31.75;98383.94;5055891;28;19943;-86
2023/06/24 05:45:24;;;;;;;;;;;;;;;33.12;31.96;98388.94;5052305;28;19924;-86
2023/06/24 05:47:50;;;;;;;;;;;;;;;32.95;32.32;98390.66;5049058;28;19925;-86
2023/06/24 05:50:16;;;;;;;;;;;;;;;33.14;32.33;98385.63;5049976;28;20342;-86
2023/06/24 05:52:42;;;;;;;;;;;;;;;33.43;32.12;98385.63;5050661;28;20388;-86
2023/06/24 05:55:08;;;;;;;;;;;;;;;33.44;31.90;98381.50;5049552;28;19921;-86
2023/06/24 05:57:34;;;;;;;;;;;;;;;33.44;32.22;98385.13;5050869;28;19921;-85
2023/06/24 06:00:00;;;;;;;;;;;;;;;33.57;31.63;98390.56;5051360;28;19921;-85
2023/06/24 06:02:26;;;;;;;;;;;;;;;33.40;32.08;98392.28;5040231;28;19921;-85
2023/06/24 06:04:52;;;;;;;;;;;;;;;33.31;32.30;98396.03;5048589;28;19929;-85
2023/06/24 06:07:18;;;;;;;;;;;;;;;33.42;32.36;98395.44;5051820;28;19921;-85
2023/06/24 06:09:44;;;;;;;;;;;;;;;33.55;31.73;98395.16;5045475;28;19974;-85
2023/06/24 06:12:10;;;;;;;;;;;;;;;33.48;32.47;98390.63;5046071;28;19924;-86
2023/06/24 06:14:36;;;;;;;;;;;;;;;33.66;32.04;98390.44;5041077;28;19921;-86
2023/06/24 06:17:02;;;;;;;;;;;;;;;33.89;31.56;98397.28;5050198;28;20905;-86
2023/06/24 06:19:28;;;;;;;;;;;;;;;34.04;31.43;98398.06;5054408;28;20019;-85
2023/06/24 06:21:54;;;;;;;;;;;;;;;34.20;31.43;98411.78;5046916;28;19929;-86
2023/06/24 06:24:20;;;;;;;;;;;;;;;34.28;31.44;98410.09;5049121;28;19917;-86
2023/06/24 06:26:46;;;;;;;;;;;;;;;34.38;31.07;98405.81;5048485;28;19925;-85
2023/06/24 06:29:13;;;;;;;;;;;;;;;34.41;31.13;98413.38;5044091;28;19921;-86
2023/06/24 06:31:39;;;;;;;;;;;;;;;34.41;30.99;98410.53;5044731;28;19927;-86
2023/06/24 06:34:05;;;;;;;;;;;;;;;34.40;30.67;98411.03;5047563;28;20011;-86
2023/06/24 06:36:31;;;;;;;;;;;;;;;34.52;30.60;98413.56;5046597;28;20030;-84
2023/06/24 06:38:57;;;;;;;;;;;;;;;34.38;30.74;98410.75;5044572;28;19921;-82
2023/06/24 06:41:26;;;;;;;;;;;;;;;34.29;31.14;98417.34;5050076;28;19925;-82
2023/06/24 06:43:52;;;;;;;;;;;;;;;34.21;31.50;98424.78;5047801;28;19948;-83
2023/06/24 06:46:18;;;;;;;;;;;;;;;34.25;31.60;98416.78;5047137;28;20301;-83
2023/06/24 06:48:44;;;;;;;;;;;;;;;34.26;31.07;98429.75;5047523;28;20015;-83
2023/06/24 06:51:10;;;;;;;;;;;;;;;34.12;31.39;98427.75;5051385;28;20043;-82
2023/06/24 06:53:36;;;;;;;;;;;;;;;34.07;31.69;98428.44;5050298;28;19921;-82
2023/06/24 06:56:02;;;;;;;;;;;;;;;34.05;31.56;98431.00;5051969;28;19932;-82
2023/06/24 06:58:28;;;;;;;;;;;;;;;33.97;31.56;98435.50;5044715;28;19932;-82
2023/06/24 07:00:54;;;;;;;;;;;;;;;33.74;31.95;98437.19;5047864;28;19970;-82
2023/06/24 07:03:21;;;;;;;;;;;;;;;33.05;33.28;98434.84;5045099;28;19932;-81
2023/06/24 07:05:47;;;;;;;;;;;;;;;32.82;33.37;98452.69;5043908;28;19936;-81
2023/06/24 07:08:13;;;;;;;;;;;;;;;32.99;33.37;98444.50;5048858;28;19921;-81
2023/06/24 07:10:39;;;;;;;;;;;;;;;33.10;33.26;98437.00;5045018;28;20042;-81
2023/06/24 07:13:05;;;;;;;;;;;;;;;33.19;33.26;98444.69;5046433;28;20960;-81
2023/06/24 07:15:31;;;;;;;;;;;;;;;33.41;33.12;98445.91;5051321;28;20028;-82
2023/06/24 07:17:57;;;;;;;;;;;;;;;33.67;32.71;98439.66;5047466;28;20011;-82
2023/06/24 07:20:24;;;;;;;;;;;;;;;33.86;32.54;98441.81;5042771;28;19925;-81
2023/06/24 07:22:50;;;;;;;;;;;;;;;33.88;32.06;98449.84;5044033;28;19978;-81
2023/06/24 07:25:16;;;;;;;;;;;;;;;33.71;32.90;98443.88;5046404;28;19925;-81
2023/06/24 07:27:42;;;;;;;;;;;;;;;33.83;32.60;98448.50;5046631;28;19986;-82
2023/06/24 07:30:08;;;;;;;;;;;;;;;33.70;32.30;98450.84;5048438;28;20387;-81
2023/06/24 07:32:34;;;;;;;;;;;;;;;33.80;32.53;98449.47;5053044;28;20019;-81
2023/06/24 07:35:00;;;;;;;;;;;;;;;33.79;32.70;98455.66;5052800;28;20011;-82
2023/06/24 07:37:26;;;;;;;;;;;;;;;33.86;32.50;98458.91;5047644;28;20340;-83
2023/06/24 07:39:52;;;;;;;;;;;;;;;33.83;32.33;98464.78;5039243;28;19971;-82
2023/06/24 07:42:19;;;;;;;;;;;;;;;33.55;32.69;98458.59;5044662;28;19964;-82
2023/06/24 07:44:45;;;;;;;;;;;;;;;33.10;34.26;98468.31;5043271;28;19925;-82
2023/06/24 07:47:11;;;;;;;;;;;;;;;33.08;33.71;98468.03;5045866;28;19928;-82
2023/06/24 07:49:37;;;;;;;;;;;;;;;32.81;34.06;98465.38;5046823;28;19921;-83
2023/06/24 07:52:04;;;;;;;;;;;;;;;33.23;33.43;98466.00;5042134;28;20047;-82
2023/06/24 07:54:30;;;;;;;;;;;;;;;33.14;33.92;98466.06;5031442;28;19944;-84
2023/06/24 07:56:56;;;;;;;;;;;;;;;33.13;33.42;98484.44;5046931;28;19936;-83
2023/06/24 07:59:22;;;;;;;;;;;;;;;32.93;33.96;98483.47;5039587;28;19951;-83
2023/06/24 08:01:48;;;;;;;;;;;;;;;32.76;34.95;98485.94;5043599;28;19936;-82
2023/06/24 08:04:15;;;;;;;;;;;;;;;33.11;33.90;98489.03;5043094;28;19967;-82
2023/06/24 08:06:41;;;;;;;;;;;;;;;33.37;33.17;98479.44;5043813;28;20434;-82
2023/06/24 08:09:07;;;;;;;;;;;;;;;33.53;32.97;98483.16;5043148;28;19979;-82
2023/06/24 08:11:33;;;;;;;;;;;;;;;33.66;32.95;98487.28;5044111;28;19956;-82
2023/06/24 08:13:59;;;;;;;;;;;;;;;33.64;32.65;98489.03;5050380;28;20407;-82
2023/06/24 08:16:25;;;;;;;;;;;;;;;33.70;32.51;98493.56;5045335;28;20380;-82
2023/06/24 08:18:51;;;;;;;;;;;;;;;33.49;33.21;98496.78;5046022;28;19921;-82
2023/06/24 08:21:17;;;;;;;;;;;;;;;33.37;33.58;98501.47;5043067;28;19970;-82
2023/06/24 08:23:43;;;;;;;;;;;;;;;33.40;33.53;98509.00;5047477;28;20299;-81
2023/06/24 08:26:09;;;;;;;;;;;;;;;33.73;32.88;98506.03;5049210;28;19921;-82
2023/06/24 08:28:35;;;;;;;;;;;;;;;33.68;32.84;98507.50;5044899;28;19928;-82
2023/06/24 08:31:01;;;;;;;;;;;;;;;33.56;33.23;98519.19;5038510;28;20419;-82
2023/06/24 08:33:27;;;;;;;;;;;;;;;33.82;33.24;98512.44;5043097;28;19925;-82
2023/06/24 08:35:53;;;;;;;;;;;;;;;34.09;32.73;98517.09;5045106;28;20335;-82
2023/06/24 08:38:19;;;;;;;;;;;;;;;33.96;32.81;98527.94;5045812;28;19974;-82
2023/06/24 08:40:46;;;;;;;;;;;;;;;34.03;32.89;98519.03;5041907;28;19921;-82
2023/06/24 08:43:12;;;;;;;;;;;;;;;33.97;33.56;98526.69;5046580;28;19929;-82
2023/06/24 08:45:38;;;;;;;;;;;;;;;34.24;32.73;98529.25;5036901;28;19925;-85
2023/06/24 08:48:04;;;;;;;;;;;;;;;34.28;32.47;98529.84;5034607;28;19982;-86
2023/06/24 08:50:39;;;;;;;;;;;;;;;34.19;32.57;98537.72;5042449;28;19916;-84
2023/06/24 08:53:08;;;;;;;;;;;;;;;34.13;32.83;98531.91;5044186;28;20743;-84
2023/06/24 08:55:39;;;;;;;;;;;;;;;34.01;33.29;98530.13;5038237;28;19917;-85
2023/06/24 08:58:05;;;;;;;;;;;;;;;33.62;34.04;98540.81;5039632;28;19927;-84
2023/06/24 09:00:31;;;;;;;;;;;;;;;33.55;33.89;98541.19;5045295;28;19917;-83
2023/06/24 09:02:58;;;;;;;;;;;;;;;33.57;33.95;98540.69;5045330;28;20303;-84
2023/06/24 09:05:24;;;;;;;;;;;;;;;33.00;35.08;98543.59;5041135;28;19924;-84
2023/06/24 09:07:50;;;;;;;;;;;;;;;33.18;34.38;98548.44;5050919;28;20016;-83
2023/06/24 09:10:37;;;;;;;;;;;;;;;32.51;36.00;98546.13;5049546;28;19917;-82
2023/06/24 09:13:04;;;;;;;;;;;;;;;32.82;35.55;98552.25;5052023;28;20351;-83
2023/06/24 09:15:31;;;;;;;;;;;;;;;32.95;36.00;98558.53;5045246;28;19925;-83
2023/06/24 09:17:58;;;;;;;;;;;;;;;32.68;37.40;98550.13;5050161;28;20671;-82
2023/06/24 09:20:25;;;;;;;;;;;;;;;32.19;37.72;98549.66;5046282;28;19920;-82
2023/06/24 09:22:51;;;;;;;;;;;;;;;32.33;36.37;98557.53;5043884;28;20407;-81
2023/06/24 09:25:18;;;;;;;;;;;;;;;32.16;36.73;98556.34;5047077;28;19964;-81
2023/06/24 09:27:52;;;;;;;;;;;;;;;32.32;37.18;98559.59;5045175;28;20388;-83
2023/06/24 09:30:21;;;;;;;;;;;;;;;32.58;35.97;98565.69;5047258;28;19921;-83
2023/06/24 09:32:48;;;;;;;;;;;;;;;32.68;36.40;98564.34;5054861;28;19927;-82
2023/06/24 09:35:14;;;;;;;;;;;;;;;32.60;38.38;98575.28;5053273;28;20368;-82
2023/06/24 09:37:40;;;;;;;;;;;;;;;32.65;35.33;98573.88;5050129;28;19943;-81
2023/06/24 09:40:08;;;;;;;;;;;;;;;33.67;33.46;98573.53;5042613;28;19979;-83
2023/06/24 09:42:34;;;;;;;;;;;;;;;33.77;33.26;98580.72;5048760;28;20453;-81
2023/06/24 09:45:04;;;;;;;;;;;;;;;33.82;32.75;98580.81;5046513;28;19951;-83
2023/06/24 09:47:30;;;;;;;;;;;;;;;33.82;32.99;98583.66;5050915;28;20007;-82
2023/06/24 09:49:56;;;;;;;;;;;;;;;33.75;32.61;98586.13;5048624;28;19921;-82
2023/06/24 09:52:23;;;;;;;;;;;;;;;33.60;33.26;98599.53;5042991;28;19952;-82
2023/06/24 09:54:50;;;;;;;;;;;;;;;33.85;32.31;98599.00;5041791;28;20381;-82
2023/06/24 09:57:18;;;;;;;;;;;;;;;33.94;32.04;98601.75;5047978;28;19925;-83
2023/06/24 09:59:46;;;;;;;;;;;;;;;34.20;32.31;98597.09;5042527;28;19925;-83
2023/06/24 10:02:14;;;;;;;;;;;;;;;34.25;31.46;98599.25;5043538;28;19953;-82
2023/06/24 10:04:40;;;;;;;;;;;;;;;34.27;31.64;98602.38;5041284;28;19929;-82
2023/06/24 10:07:07;;;;;;;;;;;;;;;34.31;31.86;98611.53;5045039;28;19964;-83
2023/06/24 10:09:33;;;;;;;;;;;;;;;33.64;32.80;98614.38;5037815;28;19940;-82
2023/06/24 10:12:00;;;;;;;;;;;;;;;33.78;32.81;98620.09;5039935;28;19921;-83
2023/06/24 10:14:26;;;;;;;;;;;;;;;34.17;31.76;98611.53;5048567;28;20011;-82
2023/06/24 10:17:00;;;;;;;;;;;;;;;34.32;31.57;98612.31;5046276;28;19987;-83
2023/06/24 10:19:27;;;;;;;;;;;;;;;34.18;31.85;98608.19;5040267;28;19928;-83
2023/06/24 10:21:54;;;;;;;;;;;;;;;34.20;31.97;98613.41;5044361;28;20396;-83
2023/06/24 10:24:34;;;;;;;;;;;;;;;34.20;32.30;98613.41;5043764;28;19917;-83
2023/06/24 10:27:01;;;;;;;;;;;;;;;34.35;32.10;98612.13;5039856;28;20340;-84
2023/06/24 10:29:31;;;;;;;;;;;;;;;34.40;32.72;98611.41;5037615;28;20381;-83
2023/06/24 10:32:00;;;;;;;;;;;;;;;34.65;32.32;98612.91;5038745;28;19979;-83
2023/06/24 10:34:31;;;;;;;;;;;;;;;34.58;32.46;98611.25;5045148;28;19920;-82
2023/06/24 10:37:00;;;;;;;;;;;;;;;34.71;31.77;98608.06;5053488;28;20434;-82
2023/06/24 10:39:41;;;;;;;;;;;;;;;35.02;31.70;98618.94;5050633;28;19921;-82
2023/06/24 10:42:26;;;;;;;;;;;;;;;34.66;31.58;98628.72;5047023;28;19974;-82
2023/06/24 10:44:53;;;;;;;;;;;;;;;34.40;32.10;98631.38;5043789;28;19933;-83
2023/06/24 10:47:19;;;;;;;;;;;;;;;34.58;31.27;98636.13;5052047;28;20349;-83
2023/06/24 10:49:45;;;;;;;;;;;;;;;34.58;31.94;98631.22;5046485;28;19940;-84
2023/06/24 10:52:12;;;;;;;;;;;;;;;34.17;31.79;98629.41;5043720;28;19967;-86
2023/06/24 10:54:38;;;;;;;;;;;;;;;33.47;33.98;98639.63;5045833;28;19921;-87
2023/06/24 10:57:05;;;;;;;;;;;;;;;33.58;33.42;98634.22;5053307;28;19929;-83
2023/06/24 10:59:34;;;;;;;;;;;;;;;34.08;32.75;98635.22;5040972;28;19967;-87
2023/06/24 11:02:00;;;;;;;;;;;;;;;34.31;30.77;98637.19;5044117;28;19917;-86
2023/06/24 11:04:26;;;;;;;;;;;;;;;34.41;31.83;98638.66;5050572;28;20407;-88
2023/06/24 11:06:58;;;;;;;;;;;;;;;34.56;31.35;98641.56;5037723;28;19929;-88
2023/06/24 11:09:24;;;;;;;;;;;;;;;34.49;31.31;98639.84;5034750;28;19917;-87
2023/06/24 11:11:50;;;;;;;;;;;;;;;34.40;30.95;98633.47;5048089;28;20072;-87
2023/06/24 11:14:16;;;;;;;;;;;;;;;34.03;32.18;98628.13;5054165;28;20026;-86
2023/06/24 11:16:43;;;;;;;;;;;;;;;33.66;32.73;98631.75;5054371;28;20394;-87
2023/06/24 11:19:09;;;;;;;;;;;;;;;33.75;32.93;98628.84;5040043;28;20407;-88
2023/06/24 11:21:35;;;;;;;;;;;;;;;34.13;33.37;98631.69;5037029;28;19917;-86
2023/06/24 11:24:02;;;;;;;;;;;;;;;34.10;34.49;98637.59;5044350;28;19925;-85
2023/06/24 11:26:28;;;;;;;;;;;;;;;33.55;35.92;98642.91;5041053;28;19916;-87
2023/06/24 11:28:54;;;;;;;;;;;;;;;33.85;34.02;98648.22;5041666;28;19921;-84
2023/06/24 11:31:27;;;;;;;;;;;;;;;33.75;35.43;98646.72;5037820;28;19917;-85
2023/06/24 11:33:53;;;;;;;;;;;;;;;33.47;32.80;98645.31;5048918;28;20369;-84
2023/06/24 11:36:19;;;;;;;;;;;;;;;34.28;32.41;98635.34;5053198;28;19924;-87
2023/06/24 11:38:46;;;;;;;;;;;;;;;34.57;32.01;98634.56;5049737;28;19962;-88
2023/06/24 11:41:12;;;;;;;;;;;;;;;33.29;32.81;98634.84;5051939;28;19927;-85
2023/06/24 11:43:43;;;;;;;;;;;;;;;32.85;35.34;98638.69;5048772;28;19921;-86
2023/06/24 11:46:09;;;;;;;;;;;;;;;33.52;34.31;98636.09;5052234;28;19924;-88
2023/06/24 11:48:41;;;;;;;;;;;;;;;33.40;36.97;98635.09;5042117;28;20014;-83
2023/06/24 11:51:13;;;;;;;;;;;;;;;33.91;32.58;98639.78;5041039;28;19955;-85
2023/06/24 11:53:45;;;;;;;;;;;;;;;34.10;33.79;98632.66;5035562;28;19921;-85
2023/06/24 11:56:12;;;;;;;;;;;;;;;34.11;32.17;98637.09;5033082;28;19925;-88
2023/06/24 11:58:39;;;;;;;;;;;;;;;34.04;33.00;98643.97;5041540;28;19927;-88
2023/06/24 12:01:08;;;;;;;;;;;;;;;33.79;32.00;98635.13;5042873;28;19921;-87
2023/06/24 12:03:34;;;;;;;;;;;;;;;33.75;32.49;98640.25;5041039;28;20280;-88
2023/06/24 12:06:00;;;;;;;;;;;;;;;33.84;31.85;98637.31;5046677;28;19925;-85
2023/06/24 12:08:26;;;;;;;;;;;;;;;33.98;31.90;98642.25;5037740;28;20011;-88
2023/06/24 12:10:52;;;;;;;;;;;;;;;33.89;31.87;98645.16;5040498;28;20024;-86
2023/06/24 12:13:18;;;;;;;;;;;;;;;33.96;32.30;98639.88;5044014;28;20367;-86
2023/06/24 12:15:44;;;;;;;;;;;;;;;33.86;31.73;98638.41;5045950;28;19932;-87
2023/06/24 12:18:12;;;;;;;;;;;;;;;33.57;32.56;98637.53;5051723;28;20335;-88
2023/06/24 12:20:38;;;;;;;;;;;;;;;33.65;32.09;98639.53;5050406;28;19921;-88
2023/06/24 12:23:04;;;;;;;;;;;;;;;33.62;32.20;98642.56;5037018;28;20293;-89
2023/06/24 12:25:30;;;;;;;;;;;;;;;33.73;32.09;98637.06;5047226;28;19924;-88
2023/06/24 12:27:56;;;;;;;;;;;;;;;33.95;31.81;98643.22;5039375;28;19925;-90
2023/06/24 12:30:22;;;;;;;;;;;;;;;33.78;31.65;98639.25;5049589;28;20365;-88
2023/06/24 12:32:51;;;;;;;;;;;;;;;33.56;31.82;98647.34;5049564;28;19966;-87
2023/06/24 12:35:17;;;;;;;;;;;;;;;33.33;32.58;98646.03;5042723;28;19963;-87
2023/06/24 12:37:45;;;;;;;;;;;;;;;33.43;32.52;98648.34;5049845;28;19972;-87
2023/06/24 12:40:11;;;;;;;;;;;;;;;33.54;32.95;98650.66;5043136;28;19921;-88
2023/06/24 12:42:37;;;;;;;;;;;;;;;33.92;32.21;98652.75;5052363;28;19917;-87
2023/06/24 12:45:03;;;;;;;;;;;;;;;34.10;31.57;98652.59;5045416;28;20391;-89
2023/06/24 12:47:29;;;;;;;;;;;;;;;33.89;32.33;98656.56;5048624;28;20042;-87